Bookmark and Share
Track history (hours):
 

Polaris

Last reported at 2014-Apr-23 06:12 UTC. Time now 2014-Apr-24 00:06 UTC.
Position N 35°27' E 139°40'.

Length 26 m.

MMSI: 431000764.

NotesDate/timePositionNaut miles runAvg speedWind from/ knotsBaromVisibWave heightAir tempDewpointWater temp
2014-Apr-23 06:12N 35°27' E 139°40'0 0.0
2014-Apr-21 13:18N 35°27' E 139°40'7 9.0
2014-Apr-21 12:33N 35°20' E 139°42'6 5.6
2014-Apr-21 11:33N 35°16' E 139°46'1111.2
2014-Apr-21 10:34N 35°27' E 139°47'1313.4
2014-Apr-21 09:33N 35°34' E 140°01'5 4.6
2014-Apr-21 08:33N 35°35' E 140°06'6 6.5
2014-Apr-21 07:34N 35°33' E 139°59'1414.3
2014-Apr-21 06:34N 35°26' E 139°43'3 3.1
2014-Apr-21 05:33N 35°27' E 139°40'0 0.1
2014-Apr-21 04:33N 35°27' E 139°40'0 0.0
2014-Apr-21 03:33N 35°27' E 139°40'0 0.0
2014-Apr-21 02:33N 35°27' E 139°40'0 0.0
2014-Apr-21 01:33N 35°27' E 139°40'0 0.0
2014-Apr-21 00:33N 35°27' E 139°40'8 8.2
2014-Apr-20 23:33N 35°19' E 139°44'9 9.3
2014-Apr-20 22:33N 35°10' E 139°47'1212.5
2014-Apr-20 21:34N 35°22' E 139°42'5 5.0
2014-Apr-20 20:33N 35°27' E 139°40'0 0.0
2014-Apr-20 19:33N 35°27' E 139°40'0 0.0
2014-Apr-20 18:33N 35°27' E 139°40'0 0.0
2014-Apr-18 19:06N 35°27' E 139°40'3 6.0
2014-Apr-18 18:33N 35°24' E 139°42'1110.8
2014-Apr-18 17:33N 35°14' E 139°46'1211.9
2014-Apr-18 16:33N 35°25' E 139°44'2 1.5
2014-Apr-18 15:33N 35°26' E 139°43'3 2.6
2014-Apr-18 14:34N 35°27' E 139°40'0 0.0
2014-Apr-18 13:33N 35°27' E 139°40'0 0.0
2014-Apr-18 12:34N 35°27' E 139°40'0 0.0
2014-Apr-18 11:33N 35°27' E 139°40'0 0.0
2014-Apr-18 10:34N 35°27' E 139°40'0 0.0
2014-Apr-18 09:33N 35°27' E 139°40'0 0.0
2014-Apr-18 08:33N 35°27' E 139°40'0 0.0
2014-Apr-18 07:33N 35°27' E 139°40'0 0.0
2014-Apr-18 06:34N 35°27' E 139°40'0 0.0
2014-Apr-18 05:33N 35°27' E 139°40'0 0.0
2014-Apr-18 04:34N 35°27' E 139°40'0 0.0
2014-Apr-18 03:33N 35°27' E 139°40'0 0.0
2014-Apr-18 02:33N 35°27' E 139°40'0 0.0
2014-Apr-18 01:33N 35°27' E 139°40'0 0.0
2014-Apr-18 00:33N 35°27' E 139°40'0 0.0
2014-Apr-17 23:33N 35°27' E 139°40'0 0.0
2014-Apr-17 22:33N 35°27' E 139°40'0 0.0
2014-Apr-17 21:33N 35°27' E 139°40'8 7.5
2014-Apr-17 20:33N 35°20' E 139°45'1110.9
2014-Apr-17 19:34N 35°10' E 139°47'9 9.3
2014-Apr-17 18:33N 35°18' E 139°43'9 0.2
2014-Apr-16 03:19N 35°27' E 139°40'4 5.8
2014-Apr-16 02:33N 35°27' E 139°45'8 7.9
2014-Apr-16 01:33N 35°30' E 139°54'9 9.4
2014-Apr-16 00:33N 35°23' E 139°46'10 9.8
2014-Apr-15 23:33N 35°14' E 139°47'1 1.3
2014-Apr-15 22:33N 35°15' E 139°46'1313.2
2014-Apr-15 21:34N 35°27' E 139°40'0 0.4
2014-Apr-15 20:32N 35°27' E 139°40'1 0.1
2014-Apr-14 23:34N 35°28' E 139°40'0 0.4
2014-Apr-14 22:34N 35°28' E 139°40'2 1.7
2014-Apr-14 21:34N 35°27' E 139°40'0 0.0
2014-Apr-14 20:34N 35°27' E 139°40'8 7.9
2014-Apr-14 19:34N 35°19' E 139°42'3 3.0
2014-Apr-14 18:34N 35°17' E 139°45'1010.2
2014-Apr-14 17:34N 35°27' E 139°43'1 0.6
2014-Apr-14 16:34N 35°27' E 139°42'2 2.3
2014-Apr-14 15:34N 35°27' E 139°40'9 1.0
2014-Apr-14 06:33N 35°18' E 139°43'1 1.1
2014-Apr-14 05:34N 35°19' E 139°43'8 0.4
2014-Apr-13 10:34N 35°27' E 139°40'8 8.0
2014-Apr-13 09:33N 35°20' E 139°44'9 9.3
2014-Apr-13 08:33N 35°11' E 139°47'1110.7
2014-Apr-13 07:33N 35°19' E 139°38'0 0.0
2014-Apr-13 06:33N 35°19' E 139°38'  

Dump ship's entire track history

sailing weather and tide predictions

Polaris — JD2797 — position and weather